sensor_id;sensor_type;location;lat;lon;timestamp;noise_LAeq;noise_LA_min;noise_LA_max;noise_LA01;noise_LA95
37279;Laerm;7458;49.002;8.472;2023-05-10T00:00:42;79.70;44.51;89.21;;
37279;Laerm;7458;49.002;8.472;2023-05-10T00:03:08;79.70;43.58;91.83;;
37279;Laerm;7458;49.002;8.472;2023-05-10T00:05:34;79.96;43.94;91.96;;
37279;Laerm;7458;49.002;8.472;2023-05-10T00:08:00;79.95;44.47;89.50;;
37279;Laerm;7458;49.002;8.472;2023-05-10T00:10:26;79.88;44.73;90.28;;
37279;Laerm;7458;49.002;8.472;2023-05-10T00:12:52;80.01;44.62;89.21;;
37279;Laerm;7458;49.002;8.472;2023-05-10T00:15:18;80.08;44.35;91.71;;
37279;Laerm;7458;49.002;8.472;2023-05-10T00:17:43;79.97;43.54;91.63;;
37279;Laerm;7458;49.002;8.472;2023-05-10T00:20:10;79.73;44.31;91.71;;
37279;Laerm;7458;49.002;8.472;2023-05-10T00:22:36;79.74;44.03;90.53;;
37279;Laerm;7458;49.002;8.472;2023-05-10T00:25:02;79.68;43.99;91.61;;
37279;Laerm;7458;49.002;8.472;2023-05-10T00:27:28;79.33;43.86;91.84;;
37279;Laerm;7458;49.002;8.472;2023-05-10T00:29:54;79.42;44.11;89.59;;
37279;Laerm;7458;49.002;8.472;2023-05-10T00:32:20;79.64;44.03;89.74;;
37279;Laerm;7458;49.002;8.472;2023-05-10T00:34:46;80.12;44.35;91.33;;
37279;Laerm;7458;49.002;8.472;2023-05-10T00:37:11;80.41;44.07;89.98;;
37279;Laerm;7458;49.002;8.472;2023-05-10T00:39:37;80.52;44.76;91.87;;
37279;Laerm;7458;49.002;8.472;2023-05-10T00:42:03;80.37;40.13;91.23;;
37279;Laerm;7458;49.002;8.472;2023-05-10T00:44:29;80.39;44.27;91.78;;
37279;Laerm;7458;49.002;8.472;2023-05-10T00:46:57;80.37;43.58;89.85;;
37279;Laerm;7458;49.002;8.472;2023-05-10T00:49:24;80.42;43.86;89.58;;
37279;Laerm;7458;49.002;8.472;2023-05-10T00:51:50;79.95;44.03;90.51;;
37279;Laerm;7458;49.002;8.472;2023-05-10T00:54:16;80.27;43.29;90.59;;
37279;Laerm;7458;49.002;8.472;2023-05-10T00:56:42;80.33;44.27;91.80;;
37279;Laerm;7458;49.002;8.472;2023-05-10T00:59:15;80.37;43.49;93.10;;
37279;Laerm;7458;49.002;8.472;2023-05-10T01:01:43;80.32;43.81;91.78;;
37279;Laerm;7458;49.002;8.472;2023-05-10T01:04:11;80.14;44.47;91.82;;
37279;Laerm;7458;49.002;8.472;2023-05-10T01:06:39;80.08;43.94;91.67;;
37279;Laerm;7458;49.002;8.472;2023-05-10T01:09:05;80.50;42.47;90.51;;
37279;Laerm;7458;49.002;8.472;2023-05-10T01:11:34;80.28;42.53;90.25;;
37279;Laerm;7458;49.002;8.472;2023-05-10T01:14:02;80.47;43.09;91.64;;
37279;Laerm;7458;49.002;8.472;2023-05-10T01:16:36;80.05;44.51;90.51;;
37279;Laerm;7458;49.002;8.472;2023-05-10T01:19:08;80.39;44.07;89.66;;
37279;Laerm;7458;49.002;8.472;2023-05-10T01:21:49;80.25;43.54;91.78;;
37279;Laerm;7458;49.002;8.472;2023-05-10T01:25:11;80.14;44.27;89.60;;
37279;Laerm;7458;49.002;8.472;2023-05-10T01:31:13;80.56;44.43;91.35;;
37279;Laerm;7458;49.002;8.472;2023-05-10T01:34:21;80.63;44.65;91.33;;
37279;Laerm;7458;49.002;8.472;2023-05-10T01:40:14;80.42;44.73;91.72;;
37279;Laerm;7458;49.002;8.472;2023-05-10T01:43:02;80.58;44.03;91.79;;
37279;Laerm;7458;49.002;8.472;2023-05-10T01:45:46;80.40;44.58;90.51;;
37279;Laerm;7458;49.002;8.472;2023-05-10T01:48:14;80.52;44.73;89.99;;
37279;Laerm;7458;49.002;8.472;2023-05-10T01:50:45;80.44;43.19;90.45;;
37279;Laerm;7458;49.002;8.472;2023-05-10T01:53:13;80.67;44.65;91.71;;
37279;Laerm;7458;49.002;8.472;2023-05-10T01:55:52;80.85;42.98;91.70;;
37279;Laerm;7458;49.002;8.472;2023-05-10T01:58:27;80.90;44.39;90.54;;
37279;Laerm;7458;49.002;8.472;2023-05-10T02:00:54;80.92;43.24;91.69;;
37279;Laerm;7458;49.002;8.472;2023-05-10T02:03:24;80.92;42.98;90.76;;
37279;Laerm;7458;49.002;8.472;2023-05-10T02:05:53;80.91;43.24;91.79;;
37279;Laerm;7458;49.002;8.472;2023-05-10T02:08:22;80.80;44.12;90.57;;
37279;Laerm;7458;49.002;8.472;2023-05-10T02:10:51;80.97;44.47;91.73;;
37279;Laerm;7458;49.002;8.472;2023-05-10T02:13:19;80.86;43.54;91.70;;
37279;Laerm;7458;49.002;8.472;2023-05-10T02:15:50;80.91;44.43;90.62;;
37279;Laerm;7458;49.002;8.472;2023-05-10T02:18:17;81.10;45.04;91.61;;
37279;Laerm;7458;49.002;8.472;2023-05-10T02:20:46;80.69;44.87;91.62;;
37279;Laerm;7458;49.002;8.472;2023-05-10T02:23:14;80.91;44.76;91.70;;
37279;Laerm;7458;49.002;8.472;2023-05-10T02:25:43;80.98;44.87;91.70;;
37279;Laerm;7458;49.002;8.472;2023-05-10T02:28:12;80.96;44.07;92.70;;
37279;Laerm;7458;49.002;8.472;2023-05-10T02:30:39;80.89;44.51;89.66;;
37279;Laerm;7458;49.002;8.472;2023-05-10T02:33:06;81.05;44.19;91.65;;
37279;Laerm;7458;49.002;8.472;2023-05-10T02:35:35;80.94;44.23;89.59;;
37279;Laerm;7458;49.002;8.472;2023-05-10T02:38:01;81.10;44.69;91.99;;
37279;Laerm;7458;49.002;8.472;2023-05-10T02:40:29;81.09;44.54;91.43;;
37279;Laerm;7458;49.002;8.472;2023-05-10T02:42:57;81.11;44.87;90.59;;
37279;Laerm;7458;49.002;8.472;2023-05-10T02:45:28;80.96;44.39;90.53;;
37279;Laerm;7458;49.002;8.472;2023-05-10T02:47:56;81.50;45.20;90.56;;
37279;Laerm;7458;49.002;8.472;2023-05-10T02:50:28;81.28;43.04;91.79;;
37279;Laerm;7458;49.002;8.472;2023-05-10T02:53:01;81.31;44.65;90.54;;
37279;Laerm;7458;49.002;8.472;2023-05-10T02:55:36;81.32;44.62;91.70;;
37279;Laerm;7458;49.002;8.472;2023-05-10T02:58:04;81.17;44.83;91.83;;
37279;Laerm;7458;49.002;8.472;2023-05-10T03:00:31;81.34;45.20;91.78;;
37279;Laerm;7458;49.002;8.472;2023-05-10T03:02:57;81.38;45.23;92.93;;
37279;Laerm;7458;49.002;8.472;2023-05-10T03:05:23;81.25;45.97;91.95;;
37279;Laerm;7458;49.002;8.472;2023-05-10T03:07:50;81.46;45.97;91.95;;
37279;Laerm;7458;49.002;8.472;2023-05-10T03:10:18;81.35;45.04;91.99;;
37279;Laerm;7458;49.002;8.472;2023-05-10T03:18:23;81.65;45.07;92.72;;
37279;Laerm;7458;49.002;8.472;2023-05-10T03:21:04;81.42;45.83;91.70;;
37279;Laerm;7458;49.002;8.472;2023-05-10T03:23:54;81.43;45.57;91.95;;
37279;Laerm;7458;49.002;8.472;2023-05-10T03:26:27;81.44;45.69;91.80;;
37279;Laerm;7458;49.002;8.472;2023-05-10T03:28:53;81.54;45.94;91.61;;
37279;Laerm;7458;49.002;8.472;2023-05-10T03:31:20;81.65;45.80;91.78;;
37279;Laerm;7458;49.002;8.472;2023-05-10T03:33:48;81.34;45.11;91.78;;
37279;Laerm;7458;49.002;8.472;2023-05-10T03:36:14;81.51;45.63;91.70;;
37279;Laerm;7458;49.002;8.472;2023-05-10T03:38:40;81.48;45.51;91.96;;
37279;Laerm;7458;49.002;8.472;2023-05-10T03:41:06;81.44;45.86;91.71;;
37279;Laerm;7458;49.002;8.472;2023-05-10T03:43:32;81.58;44.80;92.84;;
37279;Laerm;7458;49.002;8.472;2023-05-10T03:45:58;81.40;45.51;90.51;;
37279;Laerm;7458;49.002;8.472;2023-05-10T03:48:24;81.59;46.66;91.79;;
37279;Laerm;7458;49.002;8.472;2023-05-10T03:50:50;81.58;46.73;92.56;;
37279;Laerm;7458;49.002;8.472;2023-05-10T03:53:16;81.61;45.91;92.81;;
37279;Laerm;7458;49.002;8.472;2023-05-10T03:55:41;81.61;45.86;92.63;;
37279;Laerm;7458;49.002;8.472;2023-05-10T03:58:11;81.59;45.97;91.72;;
37279;Laerm;7458;49.002;8.472;2023-05-10T04:00:37;81.71;44.80;91.87;;
37279;Laerm;7458;49.002;8.472;2023-05-10T04:03:02;81.76;44.19;91.80;;
37279;Laerm;7458;49.002;8.472;2023-05-10T04:05:28;81.54;45.17;91.80;;
37279;Laerm;7458;49.002;8.472;2023-05-10T04:07:54;81.78;45.30;91.96;;
37279;Laerm;7458;49.002;8.472;2023-05-10T04:10:20;81.74;44.23;92.15;;
37279;Laerm;7458;49.002;8.472;2023-05-10T04:12:46;81.76;44.94;91.81;;
37279;Laerm;7458;49.002;8.472;2023-05-10T04:15:12;81.67;44.65;92.78;;
37279;Laerm;7458;49.002;8.472;2023-05-10T04:17:38;81.79;44.76;91.96;;
37279;Laerm;7458;49.002;8.472;2023-05-10T04:20:05;81.82;45.01;92.92;;
37279;Laerm;7458;49.002;8.472;2023-05-10T04:22:32;81.74;45.30;92.69;;
37279;Laerm;7458;49.002;8.472;2023-05-10T04:24:57;81.67;44.43;92.78;;
37279;Laerm;7458;49.002;8.472;2023-05-10T04:27:23;81.68;45.11;90.86;;
37279;Laerm;7458;49.002;8.472;2023-05-10T04:29:49;81.64;44.73;91.73;;
37279;Laerm;7458;49.002;8.472;2023-05-10T04:32:14;81.88;45.57;91.44;;
37279;Laerm;7458;49.002;8.472;2023-05-10T04:34:42;81.77;45.97;92.77;;
37279;Laerm;7458;49.002;8.472;2023-05-10T04:37:08;81.91;45.86;91.70;;
37279;Laerm;7458;49.002;8.472;2023-05-10T04:39:34;81.96;44.47;91.95;;
37279;Laerm;7458;49.002;8.472;2023-05-10T04:42:02;81.95;45.54;91.70;;
37279;Laerm;7458;49.002;8.472;2023-05-10T04:44:28;81.83;45.77;92.98;;
37279;Laerm;7458;49.002;8.472;2023-05-10T04:46:55;82.08;45.91;91.89;;
37279;Laerm;7458;49.002;8.472;2023-05-10T04:49:20;81.93;46.23;91.87;;
37279;Laerm;7458;49.002;8.472;2023-05-10T04:51:47;81.96;45.30;92.91;;
37279;Laerm;7458;49.002;8.472;2023-05-10T04:54:12;82.07;44.87;91.95;;
37279;Laerm;7458;49.002;8.472;2023-05-10T04:56:38;81.97;45.33;93.50;;
37279;Laerm;7458;49.002;8.472;2023-05-10T04:59:04;82.13;45.94;92.92;;
37279;Laerm;7458;49.002;8.472;2023-05-10T05:01:30;82.11;45.04;92.52;;
37279;Laerm;7458;49.002;8.472;2023-05-10T05:03:55;82.27;45.66;93.60;;
37279;Laerm;7458;49.002;8.472;2023-05-10T05:06:21;82.44;43.94;92.70;;
37279;Laerm;7458;49.002;8.472;2023-05-10T05:08:47;82.18;45.36;91.99;;
37279;Laerm;7458;49.002;8.472;2023-05-10T05:11:14;82.56;45.14;92.97;;
37279;Laerm;7458;49.002;8.472;2023-05-10T05:13:40;82.24;45.97;92.89;;
37279;Laerm;7458;49.002;8.472;2023-05-10T05:16:06;82.34;45.60;92.91;;
37279;Laerm;7458;49.002;8.472;2023-05-10T05:18:32;82.53;43.81;91.95;;
37279;Laerm;7458;49.002;8.472;2023-05-10T05:20:59;82.53;45.36;93.10;;
37279;Laerm;7458;49.002;8.472;2023-05-10T05:23:25;82.31;45.17;92.74;;
37279;Laerm;7458;49.002;8.472;2023-05-10T05:25:54;82.48;45.83;92.74;;
37279;Laerm;7458;49.002;8.472;2023-05-10T05:28:20;82.51;44.90;92.69;;
37279;Laerm;7458;49.002;8.472;2023-05-10T05:30:47;82.66;43.94;93.22;;
37279;Laerm;7458;49.002;8.472;2023-05-10T05:33:16;82.63;45.20;92.69;;
37279;Laerm;7458;49.002;8.472;2023-05-10T05:35:42;82.74;44.65;93.68;;
37279;Laerm;7458;49.002;8.472;2023-05-10T05:38:12;82.88;45.66;93.17;;
37279;Laerm;7458;49.002;8.472;2023-05-10T05:40:38;82.92;45.11;92.14;;
37279;Laerm;7458;49.002;8.472;2023-05-10T05:43:04;83.18;46.05;93.05;;
37279;Laerm;7458;49.002;8.472;2023-05-10T05:45:29;83.06;45.99;93.20;;
37279;Laerm;7458;49.002;8.472;2023-05-10T05:47:55;83.31;45.36;93.46;;
37279;Laerm;7458;49.002;8.472;2023-05-10T05:50:21;83.40;47.44;94.72;;
37279;Laerm;7458;49.002;8.472;2023-05-10T05:52:47;83.70;46.89;93.71;;
37279;Laerm;7458;49.002;8.472;2023-05-10T05:55:13;83.82;46.23;93.38;;
37279;Laerm;7458;49.002;8.472;2023-05-10T05:57:38;84.21;47.12;93.76;;
37279;Laerm;7458;49.002;8.472;2023-05-10T06:00:05;84.28;47.12;94.58;;
37279;Laerm;7458;49.002;8.472;2023-05-10T06:02:31;84.57;46.33;93.80;;
37279;Laerm;7458;49.002;8.472;2023-05-10T06:04:56;84.43;46.55;93.97;;
37279;Laerm;7458;49.002;8.472;2023-05-10T06:07:22;84.42;46.28;93.75;;
37279;Laerm;7458;49.002;8.472;2023-05-10T06:09:48;84.72;45.54;94.38;;
37279;Laerm;7458;49.002;8.472;2023-05-10T06:12:14;84.87;46.40;94.76;;
37279;Laerm;7458;49.002;8.472;2023-05-10T06:14:40;84.92;45.45;93.87;;
37279;Laerm;7458;49.002;8.472;2023-05-10T06:17:06;84.84;46.15;95.30;;
37279;Laerm;7458;49.002;8.472;2023-05-10T06:19:32;85.10;46.28;94.98;;
37279;Laerm;7458;49.002;8.472;2023-05-10T06:21:58;84.99;45.75;94.37;;
37279;Laerm;7458;49.002;8.472;2023-05-10T06:24:23;84.80;46.48;94.79;;
37279;Laerm;7458;49.002;8.472;2023-05-10T06:26:49;84.85;46.71;95.16;;
37279;Laerm;7458;49.002;8.472;2023-05-10T06:29:16;84.91;46.52;93.96;;
37279;Laerm;7458;49.002;8.472;2023-05-10T06:31:42;85.00;46.52;94.53;;
37279;Laerm;7458;49.002;8.472;2023-05-10T06:34:08;85.23;45.89;94.85;;
37279;Laerm;7458;49.002;8.472;2023-05-10T06:36:34;85.32;47.54;94.70;;
37279;Laerm;7458;49.002;8.472;2023-05-10T06:39:00;85.32;48.45;94.98;;
37279;Laerm;7458;49.002;8.472;2023-05-10T06:41:26;85.72;48.69;94.40;;
37279;Laerm;7458;49.002;8.472;2023-05-10T06:43:52;85.08;47.50;94.62;;
37279;Laerm;7458;49.002;8.472;2023-05-10T06:46:17;85.13;46.57;94.90;;
37279;Laerm;7458;49.002;8.472;2023-05-10T06:48:43;85.44;47.06;94.72;;
37279;Laerm;7458;49.002;8.472;2023-05-10T06:51:09;85.39;49.23;95.61;;
37279;Laerm;7458;49.002;8.472;2023-05-10T06:53:35;85.16;46.89;93.78;;
37279;Laerm;7458;49.002;8.472;2023-05-10T06:56:03;85.72;49.44;96.29;;
37279;Laerm;7458;49.002;8.472;2023-05-10T06:58:29;85.34;45.01;95.63;;
37279;Laerm;7458;49.002;8.472;2023-05-10T07:01:02;85.64;46.28;94.46;;
37279;Laerm;7458;49.002;8.472;2023-05-10T07:03:28;85.81;45.83;95.73;;
37279;Laerm;7458;49.002;8.472;2023-05-10T07:06:02;85.87;45.11;95.04;;
37279;Laerm;7458;49.002;8.472;2023-05-10T07:08:33;86.07;46.57;95.31;;
37279;Laerm;7458;49.002;8.472;2023-05-10T07:11:06;85.82;46.87;95.50;;
37279;Laerm;7458;49.002;8.472;2023-05-10T07:13:33;85.97;45.48;94.94;;
37279;Laerm;7458;49.002;8.472;2023-05-10T07:16:00;85.98;45.20;95.77;;
37279;Laerm;7458;49.002;8.472;2023-05-10T07:18:27;86.16;44.54;94.98;;
37279;Laerm;7458;49.002;8.472;2023-05-10T07:20:53;86.17;46.84;95.76;;
37279;Laerm;7458;49.002;8.472;2023-05-10T07:23:19;86.33;44.90;95.62;;
37279;Laerm;7458;49.002;8.472;2023-05-10T07:25:50;86.27;46.25;95.31;;
37279;Laerm;7458;49.002;8.472;2023-05-10T07:28:18;86.30;46.40;94.75;;
37279;Laerm;7458;49.002;8.472;2023-05-10T07:30:44;86.78;47.06;95.53;;
37279;Laerm;7458;49.002;8.472;2023-05-10T07:33:12;86.56;47.38;95.54;;
37279;Laerm;7458;49.002;8.472;2023-05-10T07:35:39;86.27;45.60;95.58;;
37279;Laerm;7458;49.002;8.472;2023-05-10T07:38:05;86.21;45.17;95.04;;
37279;Laerm;7458;49.002;8.472;2023-05-10T07:40:31;85.55;46.57;95.86;;
37279;Laerm;7458;49.002;8.472;2023-05-10T07:42:57;85.75;47.48;96.94;;
37279;Laerm;7458;49.002;8.472;2023-05-10T07:45:23;85.93;45.63;94.82;;
37279;Laerm;7458;49.002;8.472;2023-05-10T07:47:49;86.05;45.86;96.08;;
37279;Laerm;7458;49.002;8.472;2023-05-10T07:50:15;86.16;46.45;94.95;;
37279;Laerm;7458;49.002;8.472;2023-05-10T07:52:41;86.09;46.18;95.34;;
37279;Laerm;7458;49.002;8.472;2023-05-10T07:55:08;86.05;46.64;94.61;;
37279;Laerm;7458;49.002;8.472;2023-05-10T07:57:34;85.50;45.01;94.90;;
37279;Laerm;7458;49.002;8.472;2023-05-10T08:00:00;85.74;46.33;95.65;;
37279;Laerm;7458;49.002;8.472;2023-05-10T08:02:26;85.26;46.64;95.09;;
37279;Laerm;7458;49.002;8.472;2023-05-10T08:04:51;85.45;46.57;95.20;;
37279;Laerm;7458;49.002;8.472;2023-05-10T08:07:18;85.31;44.65;95.73;;
37279;Laerm;7458;49.002;8.472;2023-05-10T08:09:43;85.29;45.23;94.56;;
37279;Laerm;7458;49.002;8.472;2023-05-10T08:12:09;84.78;45.63;94.80;;
37279;Laerm;7458;49.002;8.472;2023-05-10T08:14:35;85.38;47.48;94.51;;
37279;Laerm;7458;49.002;8.472;2023-05-10T08:17:04;84.87;46.02;95.36;;
37279;Laerm;7458;49.002;8.472;2023-05-10T08:19:30;84.49;46.07;94.90;;
37279;Laerm;7458;49.002;8.472;2023-05-10T08:21:55;85.05;45.91;95.70;;
37279;Laerm;7458;49.002;8.472;2023-05-10T08:24:22;84.95;47.76;94.89;;
37279;Laerm;7458;49.002;8.472;2023-05-10T08:26:48;85.21;46.45;94.70;;
37279;Laerm;7458;49.002;8.472;2023-05-10T08:29:14;85.03;45.01;95.15;;
37279;Laerm;7458;49.002;8.472;2023-05-10T08:31:40;85.73;45.30;96.04;;
37279;Laerm;7458;49.002;8.472;2023-05-10T08:34:07;86.73;44.94;96.17;;
37279;Laerm;7458;49.002;8.472;2023-05-10T08:36:33;87.05;43.19;96.40;;
37279;Laerm;7458;49.002;8.472;2023-05-10T08:38:58;88.71;43.34;97.61;;
37279;Laerm;7458;49.002;8.472;2023-05-10T08:41:25;96.90;46.35;102.43;;
37279;Laerm;7458;49.002;8.472;2023-05-10T08:43:54;87.16;43.19;101.66;;
37279;Laerm;7458;49.002;8.472;2023-05-10T08:46:22;51.89;43.77;70.86;;
37279;Laerm;7458;49.002;8.472;2023-05-10T08:48:50;53.70;44.11;84.82;;
37279;Laerm;7458;49.002;8.472;2023-05-10T08:51:24;50.94;43.49;66.68;;
37279;Laerm;7458;49.002;8.472;2023-05-10T08:53:52;48.91;43.81;61.08;;
37279;Laerm;7458;49.002;8.472;2023-05-10T08:56:19;54.61;45.23;70.21;;
37279;Laerm;7458;49.002;8.472;2023-05-10T08:58:46;61.19;44.51;77.90;;
37279;Laerm;7458;49.002;8.472;2023-05-10T09:01:15;51.65;43.77;67.36;;
37279;Laerm;7458;49.002;8.472;2023-05-10T09:03:42;55.66;44.62;69.48;;
37279;Laerm;7458;49.002;8.472;2023-05-10T09:06:08;54.70;44.31;74.97;;
37279;Laerm;7458;49.002;8.472;2023-05-10T09:08:36;61.30;44.69;78.86;;
37279;Laerm;7458;49.002;8.472;2023-05-10T09:11:02;56.84;45.43;78.03;;
37279;Laerm;7458;49.002;8.472;2023-05-10T09:13:29;53.53;44.07;67.49;;
37279;Laerm;7458;49.002;8.472;2023-05-10T09:15:55;50.20;44.73;70.12;;
37279;Laerm;7458;49.002;8.472;2023-05-10T09:18:21;52.16;44.31;73.38;;
37279;Laerm;7458;49.002;8.472;2023-05-10T09:20:46;54.97;45.11;69.22;;
37279;Laerm;7458;49.002;8.472;2023-05-10T09:23:12;52.58;44.39;68.37;;
37279;Laerm;7458;49.002;8.472;2023-05-10T09:25:38;53.81;45.30;67.01;;
37279;Laerm;7458;49.002;8.472;2023-05-10T09:28:07;54.12;45.54;68.65;;
37279;Laerm;7458;49.002;8.472;2023-05-10T09:30:34;49.40;44.76;57.11;;
37279;Laerm;7458;49.002;8.472;2023-05-10T09:33:01;54.33;44.90;69.91;;
37279;Laerm;7458;49.002;8.472;2023-05-10T09:35:29;62.60;45.36;80.71;;
37279;Laerm;7458;49.002;8.472;2023-05-10T09:37:59;61.73;45.11;82.63;;
37279;Laerm;7458;49.002;8.472;2023-05-10T09:40:27;55.77;45.80;71.86;;
37279;Laerm;7458;49.002;8.472;2023-05-10T09:43:03;53.32;45.14;73.25;;
37279;Laerm;7458;49.002;8.472;2023-05-10T09:45:32;56.53;45.04;75.45;;
37279;Laerm;7458;49.002;8.472;2023-05-10T09:48:00;54.47;44.31;71.06;;
37279;Laerm;7458;49.002;8.472;2023-05-10T09:50:26;52.31;44.58;67.23;;
37279;Laerm;7458;49.002;8.472;2023-05-10T09:53:01;52.17;44.69;65.38;;
37279;Laerm;7458;49.002;8.472;2023-05-10T09:55:42;54.76;43.49;68.23;;
37279;Laerm;7458;49.002;8.472;2023-05-10T09:58:13;62.73;45.45;95.12;;
37279;Laerm;7458;49.002;8.472;2023-05-10T10:00:44;55.56;43.77;83.38;;
37279;Laerm;7458;49.002;8.472;2023-05-10T10:03:16;54.17;42.76;73.12;;
37279;Laerm;7458;49.002;8.472;2023-05-10T10:05:44;50.07;44.12;67.96;;
37279;Laerm;7458;49.002;8.472;2023-05-10T10:08:11;50.16;43.49;63.43;;
37279;Laerm;7458;49.002;8.472;2023-05-10T10:10:38;54.48;43.24;69.07;;
37279;Laerm;7458;49.002;8.472;2023-05-10T10:13:06;52.38;42.88;67.21;;
37279;Laerm;7458;49.002;8.472;2023-05-10T10:15:34;49.82;43.19;66.05;;
37279;Laerm;7458;49.002;8.472;2023-05-10T10:18:00;53.40;44.15;68.77;;
37279;Laerm;7458;49.002;8.472;2023-05-10T10:20:28;55.19;44.80;68.36;;
37279;Laerm;7458;49.002;8.472;2023-05-10T10:22:53;53.14;44.90;68.80;;
37279;Laerm;7458;49.002;8.472;2023-05-10T10:25:21;52.97;45.11;67.57;;
37279;Laerm;7458;49.002;8.472;2023-05-10T10:30:35;48.40;44.15;58.02;;
37279;Laerm;7458;49.002;8.472;2023-05-10T10:36:03;60.49;46.10;76.37;;
37279;Laerm;7458;49.002;8.472;2023-05-10T10:39:00;57.67;46.78;78.44;;
37279;Laerm;7458;49.002;8.472;2023-05-10T10:41:39;57.52;45.89;80.59;;
37279;Laerm;7458;49.002;8.472;2023-05-10T10:50:05;53.44;45.83;69.17;;
37279;Laerm;7458;49.002;8.472;2023-05-10T10:52:36;54.26;46.30;71.26;;
37279;Laerm;7458;49.002;8.472;2023-05-10T10:57:53;55.24;47.59;70.35;;
37279;Laerm;7458;49.002;8.472;2023-05-10T11:00:33;59.75;46.69;78.71;;
37279;Laerm;7458;49.002;8.472;2023-05-10T11:03:10;58.48;45.36;80.51;;
37279;Laerm;7458;49.002;8.472;2023-05-10T11:05:48;54.79;45.91;69.03;;
37279;Laerm;7458;49.002;8.472;2023-05-10T11:08:41;52.39;45.11;72.24;;
37279;Laerm;7458;49.002;8.472;2023-05-10T11:11:08;50.18;45.36;66.65;;
37279;Laerm;7458;49.002;8.472;2023-05-10T11:16:14;53.46;45.54;66.15;;
37279;Laerm;7458;49.002;8.472;2023-05-10T11:18:41;58.41;45.48;73.95;;
37279;Laerm;7458;49.002;8.472;2023-05-10T11:21:17;55.75;45.57;71.07;;
37279;Laerm;7458;49.002;8.472;2023-05-10T11:24:00;59.99;48.85;77.21;;
37279;Laerm;7458;49.002;8.472;2023-05-10T11:26:34;55.03;45.99;71.73;;
37279;Laerm;7458;49.002;8.472;2023-05-10T11:29:00;54.52;46.08;79.30;;
37279;Laerm;7458;49.002;8.472;2023-05-10T11:31:28;61.77;46.23;81.18;;
37279;Laerm;7458;49.002;8.472;2023-05-10T11:33:57;56.17;45.89;70.82;;
37279;Laerm;7458;49.002;8.472;2023-05-10T11:36:33;55.63;45.14;69.24;;
37279;Laerm;7458;49.002;8.472;2023-05-10T11:39:00;54.35;46.10;67.62;;
37279;Laerm;7458;49.002;8.472;2023-05-10T11:41:30;55.04;46.23;67.56;;
37279;Laerm;7458;49.002;8.472;2023-05-10T11:43:57;54.87;45.01;68.50;;
37279;Laerm;7458;49.002;8.472;2023-05-10T11:46:25;52.84;43.63;67.56;;
37279;Laerm;7458;49.002;8.472;2023-05-10T11:48:59;64.92;45.20;84.12;;
37279;Laerm;7458;49.002;8.472;2023-05-10T11:51:36;54.30;44.51;78.55;;
37279;Laerm;7458;49.002;8.472;2023-05-10T11:54:07;63.88;44.65;79.70;;
37279;Laerm;7458;49.002;8.472;2023-05-10T11:56:40;55.28;44.62;72.77;;
37279;Laerm;7458;49.002;8.472;2023-05-10T11:59:06;53.89;44.94;75.20;;
37279;Laerm;7458;49.002;8.472;2023-05-10T12:01:33;52.04;45.36;67.82;;
37279;Laerm;7458;49.002;8.472;2023-05-10T12:04:00;58.49;45.77;85.03;;
37279;Laerm;7458;49.002;8.472;2023-05-10T12:06:29;54.59;46.25;81.79;;
37279;Laerm;7458;49.002;8.472;2023-05-10T12:08:56;55.09;45.80;73.20;;
37279;Laerm;7458;49.002;8.472;2023-05-10T12:11:26;54.05;45.77;75.54;;
37279;Laerm;7458;49.002;8.472;2023-05-10T12:13:55;53.09;46.25;67.35;;
37279;Laerm;7458;49.002;8.472;2023-05-10T12:16:28;58.56;45.66;75.91;;
37279;Laerm;7458;49.002;8.472;2023-05-10T12:18:58;62.81;46.66;87.98;;
37279;Laerm;7458;49.002;8.472;2023-05-10T12:21:25;53.04;45.57;66.31;;
37279;Laerm;7458;49.002;8.472;2023-05-10T12:24:01;59.26;45.62;74.22;;
37279;Laerm;7458;49.002;8.472;2023-05-10T12:26:29;57.70;46.35;86.36;;
37279;Laerm;7458;49.002;8.472;2023-05-10T12:29:11;55.20;46.20;72.99;;
37279;Laerm;7458;49.002;8.472;2023-05-10T12:31:59;59.60;45.80;83.42;;
37279;Laerm;7458;49.002;8.472;2023-05-10T12:34:35;54.40;45.48;80.68;;
37279;Laerm;7458;49.002;8.472;2023-05-10T12:37:03;53.33;45.99;71.29;;
37279;Laerm;7458;49.002;8.472;2023-05-10T12:39:44;59.51;46.57;76.91;;
37279;Laerm;7458;49.002;8.472;2023-05-10T12:42:10;53.25;44.15;73.10;;
37279;Laerm;7458;49.002;8.472;2023-05-10T12:44:36;55.40;45.51;83.26;;
37279;Laerm;7458;49.002;8.472;2023-05-10T12:47:02;56.91;45.77;70.99;;
37279;Laerm;7458;49.002;8.472;2023-05-10T12:49:27;55.34;45.01;69.04;;
37279;Laerm;7458;49.002;8.472;2023-05-10T12:51:53;52.55;45.62;67.79;;
37279;Laerm;7458;49.002;8.472;2023-05-10T12:54:19;55.58;45.91;69.79;;
37279;Laerm;7458;49.002;8.472;2023-05-10T12:56:45;58.10;45.36;72.20;;
37279;Laerm;7458;49.002;8.472;2023-05-10T12:59:10;57.53;45.99;90.22;;
37279;Laerm;7458;49.002;8.472;2023-05-10T13:01:36;52.75;44.76;71.09;;
37279;Laerm;7458;49.002;8.472;2023-05-10T13:04:02;56.13;44.97;69.07;;
37279;Laerm;7458;49.002;8.472;2023-05-10T13:06:27;50.55;45.63;71.98;;
37279;Laerm;7458;49.002;8.472;2023-05-10T13:08:53;52.79;44.23;68.64;;
37279;Laerm;7458;49.002;8.472;2023-05-10T13:11:19;58.11;45.36;75.11;;
37279;Laerm;7458;49.002;8.472;2023-05-10T13:13:46;56.35;45.69;72.09;;
37279;Laerm;7458;49.002;8.472;2023-05-10T13:16:12;55.99;44.69;72.06;;
37279;Laerm;7458;49.002;8.472;2023-05-10T13:18:37;56.59;44.47;78.04;;
37279;Laerm;7458;49.002;8.472;2023-05-10T13:21:03;55.48;45.69;72.20;;
37279;Laerm;7458;49.002;8.472;2023-05-10T13:23:30;56.44;45.30;73.20;;
37279;Laerm;7458;49.002;8.472;2023-05-10T13:25:56;58.63;46.73;70.39;;
37279;Laerm;7458;49.002;8.472;2023-05-10T13:28:22;50.14;44.58;61.51;;
37279;Laerm;7458;49.002;8.472;2023-05-10T13:30:48;51.96;44.69;61.26;;
37279;Laerm;7458;49.002;8.472;2023-05-10T13:33:13;53.30;44.73;71.30;;
37279;Laerm;7458;49.002;8.472;2023-05-10T13:35:39;56.06;44.76;71.20;;
37279;Laerm;7458;49.002;8.472;2023-05-10T13:38:05;53.11;44.62;69.27;;
37279;Laerm;7458;49.002;8.472;2023-05-10T13:40:33;54.17;44.90;71.31;;
37279;Laerm;7458;49.002;8.472;2023-05-10T13:42:59;55.23;45.51;69.32;;
37279;Laerm;7458;49.002;8.472;2023-05-10T13:45:25;59.93;45.04;80.85;;
37279;Laerm;7458;49.002;8.472;2023-05-10T13:47:51;67.05;44.94;89.95;;
37279;Laerm;7458;49.002;8.472;2023-05-10T13:50:17;51.92;45.69;65.91;;
37279;Laerm;7458;49.002;8.472;2023-05-10T13:52:43;54.57;45.07;73.49;;
37279;Laerm;7458;49.002;8.472;2023-05-10T13:55:09;54.47;44.62;68.01;;
37279;Laerm;7458;49.002;8.472;2023-05-10T13:57:37;55.33;45.11;75.48;;
37279;Laerm;7458;49.002;8.472;2023-05-10T14:00:04;57.14;43.37;84.27;;
37279;Laerm;7458;49.002;8.472;2023-05-10T14:02:30;58.34;44.73;71.93;;
37279;Laerm;7458;49.002;8.472;2023-05-10T14:04:56;55.43;44.76;72.10;;
37279;Laerm;7458;49.002;8.472;2023-05-10T14:07:22;61.09;44.83;85.98;;
37279;Laerm;7458;49.002;8.472;2023-05-10T14:09:47;55.18;45.01;71.21;;
37279;Laerm;7458;49.002;8.472;2023-05-10T14:12:13;53.04;45.01;80.88;;
37279;Laerm;7458;49.002;8.472;2023-05-10T14:14:40;52.29;44.73;70.79;;
37279;Laerm;7458;49.002;8.472;2023-05-10T14:17:05;55.70;43.86;72.17;;
37279;Laerm;7458;49.002;8.472;2023-05-10T14:19:31;63.39;44.83;80.36;;
37279;Laerm;7458;49.002;8.472;2023-05-10T14:21:59;53.73;43.68;86.02;;
37279;Laerm;7458;49.002;8.472;2023-05-10T14:24:25;53.12;43.77;70.70;;
37279;Laerm;7458;49.002;8.472;2023-05-10T14:26:51;57.03;43.58;79.44;;
37279;Laerm;7458;49.002;8.472;2023-05-10T14:29:20;53.93;44.07;71.75;;
37279;Laerm;7458;49.002;8.472;2023-05-10T14:31:46;48.78;43.29;68.77;;